NOZ173 EKBI-ESMS
Flight info
| Callsign | NOZ173 |
|---|---|
| Flight time | 0h 30m |
| Altitude | 23000 |
| Route | ABINO DCT MIKSI DCT KULUD L621 ERNOV |
| Aircraft | B38M/M-SDE1FGHILORVWXY/HB1 |
Departure
| Time | 2026-05-05 05:33 |
|---|---|
| Airport | Billund Airport (EKBI) |
Arrival
| Time | 2026-05-05 06:04 |
|---|---|
| Airport | Malmö Sturup Airport (ESMS) |
| Time | Latitude | Longitude | Altitude | Speed | Heading |
|---|---|---|---|---|---|
| 2026-05-05 05:20 | 55.74524 | 9.14619 | 223 ft | 0 kts | 357° |
| 2026-05-05 05:26 | 55.74513 | 9.14619 | 219 ft | 3 kts | 357° |
| 2026-05-05 05:27 | 55.74495 | 9.14621 | 212 ft | 3 kts | 357° |
| 2026-05-05 05:27 | 55.74486 | 9.14622 | 205 ft | 3 kts | 357° |
| 2026-05-05 05:27 | 55.74455 | 9.14632 | 220 ft | 2 kts | 302° |
| 2026-05-05 05:28 | 55.74452 | 9.14644 | 226 ft | 0 kts | 271° |
| 2026-05-05 05:28 | 55.74452 | 9.14643 | 226 ft | 0 kts | 271° |
| 2026-05-05 05:29 | 55.74451 | 9.14623 | 221 ft | 4 kts | 266° |
| 2026-05-05 05:29 | 55.74435 | 9.14532 | 225 ft | 10 kts | 238° |
| 2026-05-05 05:29 | 55.74369 | 9.14474 | 224 ft | 12 kts | 183° |
| 2026-05-05 05:30 | 55.74284 | 9.14476 | 219 ft | 10 kts | 196° |
| 2026-05-05 05:30 | 55.74253 | 9.14358 | 223 ft | 15 kts | 267° |
| 2026-05-05 05:30 | 55.74248 | 9.14139 | 221 ft | 19 kts | 267° |
| 2026-05-05 05:30 | 55.74241 | 9.13891 | 218 ft | 21 kts | 267° |
| 2026-05-05 05:31 | 55.74233 | 9.13625 | 221 ft | 22 kts | 266° |
| 2026-05-05 05:31 | 55.74204 | 9.13393 | 221 ft | 20 kts | 238° |
| 2026-05-05 05:31 | 55.74112 | 9.13268 | 221 ft | 14 kts | 197° |
| 2026-05-05 05:31 | 55.74019 | 9.13261 | 223 ft | 13 kts | 167° |
| 2026-05-05 05:32 | 55.73978 | 9.13325 | 221 ft | 8 kts | 107° |
| 2026-05-05 05:32 | 55.73977 | 9.13357 | 223 ft | 0 kts | 87° |
| 2026-05-05 05:32 | 55.73977 | 9.13359 | 223 ft | 5 kts | 87° |
| 2026-05-05 05:32 | 55.73994 | 9.13943 | 225 ft | 89 kts | 87° |
| 2026-05-05 05:33 | 55.74040 | 9.15487 | 219 ft | 159 kts | 87° |
| 2026-05-05 05:33 | 55.74098 | 9.17703 | 570 ft | 193 kts | 88° |
| 2026-05-05 05:33 | 55.74166 | 9.20112 | 1547 ft | 196 kts | 81° |
| 2026-05-05 05:33 | 55.74419 | 9.22446 | 2383 ft | 205 kts | 70° |
| 2026-05-05 05:34 | 55.74714 | 9.24064 | 2897 ft | 212 kts | 67° |
| 2026-05-05 05:34 | 55.75312 | 9.26632 | 3425 ft | 242 kts | 62° |
| 2026-05-05 05:34 | 55.76116 | 9.29317 | 4407 ft | 244 kts | 58° |
| 2026-05-05 05:34 | 55.76973 | 9.31967 | 5424 ft | 255 kts | 58° |
| 2026-05-05 05:35 | 55.77892 | 9.34806 | 6071 ft | 275 kts | 58° |
| 2026-05-05 05:35 | 55.78867 | 9.37763 | 7031 ft | 277 kts | 59° |
| 2026-05-05 05:35 | 55.79814 | 9.40824 | 7854 ft | 289 kts | 60° |
| 2026-05-05 05:35 | 55.80776 | 9.44033 | 8711 ft | 297 kts | 60° |
| 2026-05-05 05:36 | 55.81747 | 9.47307 | 9643 ft | 303 kts | 61° |
| 2026-05-05 05:36 | 55.82739 | 9.50680 | 10400 ft | 314 kts | 61° |
| 2026-05-05 05:36 | 55.83776 | 9.54227 | 10859 ft | 334 kts | 61° |
| 2026-05-05 05:36 | 55.84876 | 9.58005 | 11270 ft | 354 kts | 61° |
| 2026-05-05 05:37 | 55.86040 | 9.62011 | 11632 ft | 374 kts | 61° |
| 2026-05-05 05:37 | 55.87264 | 9.66229 | 11948 ft | 393 kts | 61° |
| 2026-05-05 05:37 | 55.88542 | 9.70641 | 12373 ft | 407 kts | 61° |
| 2026-05-05 05:37 | 55.89860 | 9.75197 | 12879 ft | 418 kts | 62° |
| 2026-05-05 05:38 | 55.91196 | 9.79822 | 13599 ft | 422 kts | 62° |
| 2026-05-05 05:38 | 55.92549 | 9.84515 | 14184 ft | 429 kts | 61° |
| 2026-05-05 05:38 | 55.93916 | 9.89270 | 14783 ft | 433 kts | 61° |
| 2026-05-05 05:38 | 55.95295 | 9.94074 | 15400 ft | 437 kts | 61° |
| 2026-05-05 05:39 | 55.96644 | 9.98966 | 15983 ft | 442 kts | 68° |
| 2026-05-05 05:39 | 55.97543 | 10.04238 | 16585 ft | 446 kts | 74° |
| 2026-05-05 05:39 | 55.98387 | 10.09606 | 17148 ft | 451 kts | 74° |
| 2026-05-05 05:39 | 55.99224 | 10.15035 | 17723 ft | 455 kts | 74° |
| 2026-05-05 05:40 | 56.00061 | 10.20510 | 18276 ft | 459 kts | 74° |
| 2026-05-05 05:40 | 56.00903 | 10.26046 | 18732 ft | 463 kts | 75° |
| 2026-05-05 05:40 | 56.01745 | 10.31605 | 19301 ft | 464 kts | 75° |
| 2026-05-05 05:40 | 56.02588 | 10.37187 | 19814 ft | 467 kts | 75° |
| 2026-05-05 05:41 | 56.03435 | 10.42815 | 20316 ft | 470 kts | 75° |
| 2026-05-05 05:41 | 56.04283 | 10.48467 | 20811 ft | 472 kts | 75° |
| 2026-05-05 05:41 | 56.05132 | 10.54153 | 21308 ft | 475 kts | 75° |
| 2026-05-05 05:41 | 56.05984 | 10.59874 | 21792 ft | 477 kts | 75° |
| 2026-05-05 05:42 | 56.06838 | 10.65630 | 22273 ft | 480 kts | 75° |
| 2026-05-05 05:42 | 56.07694 | 10.71419 | 22736 ft | 483 kts | 75° |
| 2026-05-05 05:42 | 56.08555 | 10.77264 | 22968 ft | 488 kts | 75° |
| 2026-05-05 05:42 | 56.09423 | 10.83174 | 22963 ft | 495 kts | 75° |
| 2026-05-05 05:43 | 56.10298 | 10.89164 | 22967 ft | 499 kts | 75° |
| 2026-05-05 05:43 | 56.11178 | 10.95203 | 22951 ft | 502 kts | 76° |
| 2026-05-05 05:43 | 56.12044 | 11.01170 | 22963 ft | 502 kts | 76° |
| 2026-05-05 05:43 | 56.12920 | 11.07230 | 22953 ft | 502 kts | 76° |
| 2026-05-05 05:44 | 56.13793 | 11.13295 | 22960 ft | 502 kts | 76° |
| 2026-05-05 05:44 | 56.14664 | 11.19364 | 22952 ft | 502 kts | 76° |
| 2026-05-05 05:44 | 56.15530 | 11.25427 | 22967 ft | 502 kts | 76° |
| 2026-05-05 05:44 | 56.16394 | 11.31500 | 22950 ft | 502 kts | 76° |
| 2026-05-05 05:45 | 56.17255 | 11.37574 | 22951 ft | 502 kts | 76° |
| 2026-05-05 05:45 | 56.18114 | 11.43653 | 22951 ft | 502 kts | 76° |
| 2026-05-05 05:45 | 56.18971 | 11.49728 | 22952 ft | 502 kts | 76° |
| 2026-05-05 05:45 | 56.19826 | 11.55815 | 22951 ft | 502 kts | 76° |
| 2026-05-05 05:46 | 56.20477 | 11.61967 | 22959 ft | 502 kts | 82° |
| 2026-05-05 05:46 | 56.20999 | 11.68158 | 22954 ft | 500 kts | 82° |
| 2026-05-05 05:46 | 56.21501 | 11.74336 | 22944 ft | 500 kts | 82° |
| 2026-05-05 05:46 | 56.21994 | 11.80517 | 22953 ft | 500 kts | 83° |
| 2026-05-05 05:47 | 56.22481 | 11.86693 | 22959 ft | 499 kts | 83° |
| 2026-05-05 05:47 | 56.22966 | 11.92875 | 22946 ft | 500 kts | 83° |
| 2026-05-05 05:47 | 56.23446 | 11.99043 | 22745 ft | 496 kts | 83° |
| 2026-05-05 05:47 | 56.23918 | 12.05143 | 22275 ft | 490 kts | 83° |
| 2026-05-05 05:48 | 56.24382 | 12.11183 | 21800 ft | 487 kts | 83° |
| 2026-05-05 05:48 | 56.24841 | 12.17199 | 21368 ft | 485 kts | 83° |
| 2026-05-05 05:48 | 56.25294 | 12.23198 | 20915 ft | 483 kts | 84° |
| 2026-05-05 05:48 | 56.25307 | 12.29189 | 20451 ft | 477 kts | 99° |
| 2026-05-05 05:49 | 56.24575 | 12.34958 | 20005 ft | 469 kts | 114° |
| 2026-05-05 05:49 | 56.23127 | 12.40144 | 19595 ft | 462 kts | 125° |
| 2026-05-05 05:49 | 56.21445 | 12.45037 | 19159 ft | 458 kts | 127° |
| 2026-05-05 05:49 | 56.19718 | 12.49798 | 18651 ft | 451 kts | 128° |
| 2026-05-05 05:50 | 56.17984 | 12.54453 | 18123 ft | 447 kts | 128° |
| 2026-05-05 05:50 | 56.16260 | 12.59066 | 17548 ft | 443 kts | 128° |
| 2026-05-05 05:50 | 56.14542 | 12.63633 | 16970 ft | 440 kts | 128° |
| 2026-05-05 05:50 | 56.12832 | 12.68158 | 16421 ft | 436 kts | 128° |
| 2026-05-05 05:51 | 56.11136 | 12.72636 | 15877 ft | 433 kts | 128° |
| 2026-05-05 05:51 | 56.09449 | 12.77077 | 15350 ft | 430 kts | 128° |
| 2026-05-05 05:51 | 56.07776 | 12.81476 | 14817 ft | 426 kts | 128° |
| 2026-05-05 05:51 | 56.06109 | 12.85848 | 14314 ft | 424 kts | 128° |
| 2026-05-05 05:52 | 56.04475 | 12.90129 | 13815 ft | 421 kts | 128° |
| 2026-05-05 05:52 | 56.02831 | 12.94428 | 13245 ft | 417 kts | 128° |
| 2026-05-05 05:52 | 56.01198 | 12.98689 | 12720 ft | 414 kts | 128° |
| 2026-05-05 05:52 | 55.99578 | 13.02909 | 12232 ft | 410 kts | 128° |
| 2026-05-05 05:53 | 55.97968 | 13.07098 | 11741 ft | 407 kts | 128° |
| 2026-05-05 05:53 | 55.96370 | 13.11246 | 11261 ft | 404 kts | 128° |
| 2026-05-05 05:53 | 55.94778 | 13.15342 | 10767 ft | 399 kts | 131° |
| 2026-05-05 05:53 | 55.92788 | 13.18632 | 10287 ft | 385 kts | 154° |
| 2026-05-05 05:54 | 55.90349 | 13.20235 | 9854 ft | 368 kts | 176° |
| 2026-05-05 05:54 | 55.87840 | 13.20568 | 9504 ft | 357 kts | 181° |
| 2026-05-05 05:54 | 55.85386 | 13.20871 | 9143 ft | 350 kts | 181° |
| 2026-05-05 05:54 | 55.82980 | 13.21165 | 8806 ft | 343 kts | 180° |
| 2026-05-05 05:55 | 55.80619 | 13.21451 | 8486 ft | 337 kts | 180° |
| 2026-05-05 05:55 | 55.78298 | 13.21732 | 8156 ft | 331 kts | 180° |
| 2026-05-05 05:55 | 55.76014 | 13.22008 | 7831 ft | 326 kts | 180° |
| 2026-05-05 05:55 | 55.73767 | 13.22278 | 7511 ft | 321 kts | 180° |
| 2026-05-05 05:56 | 55.71550 | 13.22545 | 7192 ft | 317 kts | 180° |
| 2026-05-05 05:56 | 55.69362 | 13.22808 | 6876 ft | 313 kts | 180° |
| 2026-05-05 05:56 | 55.67198 | 13.23069 | 6557 ft | 310 kts | 180° |
| 2026-05-05 05:56 | 55.65057 | 13.23325 | 6226 ft | 307 kts | 180° |
| 2026-05-05 05:57 | 55.62940 | 13.23579 | 5893 ft | 304 kts | 180° |
| 2026-05-05 05:57 | 55.60841 | 13.23831 | 5553 ft | 301 kts | 179° |
| 2026-05-05 05:57 | 55.58764 | 13.24056 | 5216 ft | 297 kts | 181° |
| 2026-05-05 05:57 | 55.56707 | 13.24187 | 4909 ft | 294 kts | 181° |
| 2026-05-05 05:58 | 55.54677 | 13.24319 | 4651 ft | 289 kts | 181° |
| 2026-05-05 05:58 | 55.52684 | 13.24453 | 4408 ft | 284 kts | 180° |
| 2026-05-05 05:58 | 55.50727 | 13.24584 | 4170 ft | 279 kts | 180° |
| 2026-05-05 05:58 | 55.48803 | 13.24716 | 3938 ft | 274 kts | 180° |
| 2026-05-05 05:59 | 55.46907 | 13.24845 | 3694 ft | 271 kts | 180° |
| 2026-05-05 05:59 | 55.45039 | 13.24970 | 3467 ft | 267 kts | 180° |
| 2026-05-05 05:59 | 55.43199 | 13.25096 | 3228 ft | 263 kts | 179° |
| 2026-05-05 05:59 | 55.41416 | 13.25713 | 2971 ft | 263 kts | 158° |
| 2026-05-05 06:00 | 55.39993 | 13.27654 | 2721 ft | 261 kts | 127° |
| 2026-05-05 06:00 | 55.39220 | 13.30485 | 2522 ft | 255 kts | 99° |
| 2026-05-05 06:00 | 55.39276 | 13.33400 | 2483 ft | 239 kts | 72° |
| 2026-05-05 06:00 | 55.39992 | 13.35897 | 2477 ft | 221 kts | 48° |
| 2026-05-05 06:01 | 55.41020 | 13.37735 | 2533 ft | 202 kts | 40° |
| 2026-05-05 06:01 | 55.42106 | 13.39144 | 2296 ft | 194 kts | 19° |
| 2026-05-05 06:01 | 55.43366 | 13.39653 | 2083 ft | 176 kts | 1° |
| 2026-05-05 06:01 | 55.44522 | 13.39548 | 1845 ft | 158 kts | 351° |
| 2026-05-05 06:02 | 55.45607 | 13.39279 | 1638 ft | 158 kts | 351° |
| 2026-05-05 06:02 | 55.46669 | 13.39044 | 1450 ft | 148 kts | 352° |
| 2026-05-05 06:02 | 55.47694 | 13.38838 | 1216 ft | 147 kts | 352° |
| 2026-05-05 06:02 | 55.48684 | 13.38639 | 970 ft | 143 kts | 352° |
| 2026-05-05 06:03 | 55.49674 | 13.38434 | 795 ft | 145 kts | 351° |
| 2026-05-05 06:03 | 55.50682 | 13.38218 | 609 ft | 148 kts | 352° |
| 2026-05-05 06:03 | 55.51706 | 13.38020 | 410 ft | 147 kts | 350° |
| 2026-05-05 06:03 | 55.52714 | 13.37811 | 258 ft | 139 kts | 352° |
| 2026-05-05 06:04 | 55.53573 | 13.37607 | 240 ft | 94 kts | 354° |
| 2026-05-05 06:04 | 55.54001 | 13.37542 | 244 ft | 42 kts | 355° |
| 2026-05-05 06:04 | 55.54193 | 13.37498 | 242 ft | 15 kts | 338° |
| 2026-05-05 06:04 | 55.54220 | 13.37375 | 237 ft | 18 kts | 264° |
| 2026-05-05 06:05 | 55.54194 | 13.37109 | 235 ft | 24 kts | 256° |
| 2026-05-05 06:05 | 55.54171 | 13.36898 | 233 ft | 11 kts | 255° |
| 2026-05-05 06:05 | 55.54124 | 13.36845 | 236 ft | 6 kts | 178° |
| 2026-05-05 06:05 | 55.54103 | 13.36849 | 235 ft | 1 kts | 171° |